sensor_id;sensor_type;location;lat;lon;timestamp;P1;durP1;ratioP1;P2;durP2;ratioP2
24147;SDS011;12309;51.450;-2.624;2023-11-22T00:00:06;4.17;;;2.37;;
24147;SDS011;12309;51.450;-2.624;2023-11-22T00:02:35;10.40;;;2.83;;
24147;SDS011;12309;51.450;-2.624;2023-11-22T00:05:01;10.10;;;3.00;;
24147;SDS011;12309;51.450;-2.624;2023-11-22T00:07:28;7.37;;;2.80;;
24147;SDS011;12309;51.450;-2.624;2023-11-22T00:09:54;5.37;;;2.87;;
24147;SDS011;12309;51.450;-2.624;2023-11-22T00:12:20;5.50;;;2.43;;
24147;SDS011;12309;51.450;-2.624;2023-11-22T00:14:47;5.13;;;2.70;;
24147;SDS011;12309;51.450;-2.624;2023-11-22T00:17:13;4.27;;;2.50;;
24147;SDS011;12309;51.450;-2.624;2023-11-22T00:19:38;8.30;;;2.80;;
24147;SDS011;12309;51.450;-2.624;2023-11-22T00:22:05;9.33;;;3.00;;
24147;SDS011;12309;51.450;-2.624;2023-11-22T00:24:38;7.17;;;2.57;;
24147;SDS011;12309;51.450;-2.624;2023-11-22T00:27:07;5.80;;;3.10;;
24147;SDS011;12309;51.450;-2.624;2023-11-22T00:29:33;6.03;;;2.67;;
24147;SDS011;12309;51.450;-2.624;2023-11-22T00:31:59;7.47;;;2.60;;
24147;SDS011;12309;51.450;-2.624;2023-11-22T00:34:25;6.40;;;2.40;;
24147;SDS011;12309;51.450;-2.624;2023-11-22T00:36:51;6.63;;;2.43;;
24147;SDS011;12309;51.450;-2.624;2023-11-22T00:39:17;8.10;;;2.57;;
24147;SDS011;12309;51.450;-2.624;2023-11-22T00:41:43;5.93;;;2.50;;
24147;SDS011;12309;51.450;-2.624;2023-11-22T00:44:09;7.93;;;2.70;;
24147;SDS011;12309;51.450;-2.624;2023-11-22T00:46:35;9.67;;;2.70;;
24147;SDS011;12309;51.450;-2.624;2023-11-22T00:49:04;6.00;;;2.93;;
24147;SDS011;12309;51.450;-2.624;2023-11-22T00:51:31;7.87;;;2.67;;
24147;SDS011;12309;51.450;-2.624;2023-11-22T00:53:57;6.33;;;2.40;;
24147;SDS011;12309;51.450;-2.624;2023-11-22T00:56:23;6.37;;;3.10;;
24147;SDS011;12309;51.450;-2.624;2023-11-22T00:58:49;5.27;;;2.97;;
24147;SDS011;12309;51.450;-2.624;2023-11-22T01:01:16;8.23;;;2.93;;
24147;SDS011;12309;51.450;-2.624;2023-11-22T01:03:43;7.17;;;2.87;;
24147;SDS011;12309;51.450;-2.624;2023-11-22T01:06:08;7.83;;;2.90;;
24147;SDS011;12309;51.450;-2.624;2023-11-22T01:08:34;4.83;;;2.47;;
24147;SDS011;12309;51.450;-2.624;2023-11-22T01:11:00;7.63;;;2.13;;
24147;SDS011;12309;51.450;-2.624;2023-11-22T01:13:28;6.33;;;2.90;;
24147;SDS011;12309;51.450;-2.624;2023-11-22T01:15:54;5.00;;;2.57;;
24147;SDS011;12309;51.450;-2.624;2023-11-22T01:18:20;6.40;;;3.03;;
24147;SDS011;12309;51.450;-2.624;2023-11-22T01:20:45;6.33;;;2.90;;
24147;SDS011;12309;51.450;-2.624;2023-11-22T01:23:11;5.23;;;2.90;;
24147;SDS011;12309;51.450;-2.624;2023-11-22T01:25:37;10.23;;;2.90;;
24147;SDS011;12309;51.450;-2.624;2023-11-22T01:28:02;6.20;;;2.63;;
24147;SDS011;12309;51.450;-2.624;2023-11-22T01:30:29;5.40;;;2.60;;
24147;SDS011;12309;51.450;-2.624;2023-11-22T01:32:54;5.07;;;2.87;;
24147;SDS011;12309;51.450;-2.624;2023-11-22T01:35:20;6.37;;;2.87;;
24147;SDS011;12309;51.450;-2.624;2023-11-22T01:37:46;12.43;;;3.43;;
24147;SDS011;12309;51.450;-2.624;2023-11-22T01:40:12;5.47;;;2.87;;
24147;SDS011;12309;51.450;-2.624;2023-11-22T01:42:38;10.40;;;3.03;;
24147;SDS011;12309;51.450;-2.624;2023-11-22T01:45:06;5.57;;;2.70;;
24147;SDS011;12309;51.450;-2.624;2023-11-22T01:47:32;7.57;;;3.10;;
24147;SDS011;12309;51.450;-2.624;2023-11-22T01:49:59;6.20;;;2.60;;
24147;SDS011;12309;51.450;-2.624;2023-11-22T01:52:25;8.07;;;2.90;;
24147;SDS011;12309;51.450;-2.624;2023-11-22T01:54:51;7.23;;;2.80;;
24147;SDS011;12309;51.450;-2.624;2023-11-22T01:57:17;6.43;;;2.40;;
24147;SDS011;12309;51.450;-2.624;2023-11-22T01:59:44;5.43;;;2.40;;
24147;SDS011;12309;51.450;-2.624;2023-11-22T02:02:12;7.40;;;3.00;;
24147;SDS011;12309;51.450;-2.624;2023-11-22T02:04:38;8.80;;;2.90;;
24147;SDS011;12309;51.450;-2.624;2023-11-22T02:07:04;11.67;;;3.03;;
24147;SDS011;12309;51.450;-2.624;2023-11-22T02:09:30;6.53;;;2.77;;
24147;SDS011;12309;51.450;-2.624;2023-11-22T02:11:55;6.63;;;2.60;;
24147;SDS011;12309;51.450;-2.624;2023-11-22T02:14:22;8.60;;;2.97;;
24147;SDS011;12309;51.450;-2.624;2023-11-22T02:16:48;9.43;;;3.07;;
24147;SDS011;12309;51.450;-2.624;2023-11-22T02:19:15;7.23;;;2.80;;
24147;SDS011;12309;51.450;-2.624;2023-11-22T02:21:42;7.20;;;3.30;;
24147;SDS011;12309;51.450;-2.624;2023-11-22T02:24:09;4.30;;;2.87;;
24147;SDS011;12309;51.450;-2.624;2023-11-22T02:26:35;6.00;;;2.60;;
24147;SDS011;12309;51.450;-2.624;2023-11-22T02:29:01;9.43;;;2.90;;
24147;SDS011;12309;51.450;-2.624;2023-11-22T02:31:29;6.50;;;2.60;;
24147;SDS011;12309;51.450;-2.624;2023-11-22T02:33:55;5.07;;;2.73;;
24147;SDS011;12309;51.450;-2.624;2023-11-22T02:36:21;7.43;;;2.90;;
24147;SDS011;12309;51.450;-2.624;2023-11-22T02:38:47;7.13;;;2.63;;
24147;SDS011;12309;51.450;-2.624;2023-11-22T02:41:13;7.03;;;2.80;;
24147;SDS011;12309;51.450;-2.624;2023-11-22T02:43:39;4.20;;;2.73;;
24147;SDS011;12309;51.450;-2.624;2023-11-22T02:46:06;5.50;;;2.33;;
24147;SDS011;12309;51.450;-2.624;2023-11-22T02:48:33;3.80;;;2.37;;
24147;SDS011;12309;51.450;-2.624;2023-11-22T02:50:59;5.00;;;2.60;;
24147;SDS011;12309;51.450;-2.624;2023-11-22T02:53:25;5.87;;;2.80;;
24147;SDS011;12309;51.450;-2.624;2023-11-22T02:55:52;4.90;;;2.40;;
24147;SDS011;12309;51.450;-2.624;2023-11-22T02:58:20;7.07;;;3.10;;
24147;SDS011;12309;51.450;-2.624;2023-11-22T03:00:46;4.93;;;3.00;;
24147;SDS011;12309;51.450;-2.624;2023-11-22T03:03:12;6.03;;;2.80;;
24147;SDS011;12309;51.450;-2.624;2023-11-22T03:05:38;7.63;;;3.17;;
24147;SDS011;12309;51.450;-2.624;2023-11-22T03:08:07;6.73;;;2.97;;
24147;SDS011;12309;51.450;-2.624;2023-11-22T03:10:33;9.20;;;2.70;;
24147;SDS011;12309;51.450;-2.624;2023-11-22T03:12:58;9.00;;;3.10;;
24147;SDS011;12309;51.450;-2.624;2023-11-22T03:15:24;6.17;;;2.80;;
24147;SDS011;12309;51.450;-2.624;2023-11-22T03:17:50;4.30;;;2.37;;
24147;SDS011;12309;51.450;-2.624;2023-11-22T03:20:16;7.13;;;2.37;;
24147;SDS011;12309;51.450;-2.624;2023-11-22T03:22:42;6.03;;;2.77;;
24147;SDS011;12309;51.450;-2.624;2023-11-22T03:25:10;6.40;;;2.87;;
24147;SDS011;12309;51.450;-2.624;2023-11-22T03:27:37;9.13;;;2.87;;
24147;SDS011;12309;51.450;-2.624;2023-11-22T03:30:03;4.40;;;2.90;;
24147;SDS011;12309;51.450;-2.624;2023-11-22T03:32:30;7.43;;;2.90;;
24147;SDS011;12309;51.450;-2.624;2023-11-22T03:34:55;4.57;;;2.67;;
24147;SDS011;12309;51.450;-2.624;2023-11-22T03:37:22;7.37;;;2.90;;
24147;SDS011;12309;51.450;-2.624;2023-11-22T03:39:49;8.87;;;2.93;;
24147;SDS011;12309;51.450;-2.624;2023-11-22T03:42:15;4.93;;;2.73;;
24147;SDS011;12309;51.450;-2.624;2023-11-22T03:44:41;7.07;;;2.67;;
24147;SDS011;12309;51.450;-2.624;2023-11-22T03:47:07;6.40;;;2.63;;
24147;SDS011;12309;51.450;-2.624;2023-11-22T03:49:33;6.43;;;2.80;;
24147;SDS011;12309;51.450;-2.624;2023-11-22T03:51:58;6.80;;;2.77;;
24147;SDS011;12309;51.450;-2.624;2023-11-22T03:54:24;3.63;;;2.33;;
24147;SDS011;12309;51.450;-2.624;2023-11-22T03:56:49;6.70;;;2.97;;
24147;SDS011;12309;51.450;-2.624;2023-11-22T03:59:17;6.53;;;2.50;;
24147;SDS011;12309;51.450;-2.624;2023-11-22T04:01:43;7.40;;;2.87;;
24147;SDS011;12309;51.450;-2.624;2023-11-22T04:04:09;6.87;;;3.10;;
24147;SDS011;12309;51.450;-2.624;2023-11-22T04:06:35;7.67;;;3.10;;
24147;SDS011;12309;51.450;-2.624;2023-11-22T04:09:00;7.10;;;3.20;;
24147;SDS011;12309;51.450;-2.624;2023-11-22T04:11:26;8.67;;;3.10;;
24147;SDS011;12309;51.450;-2.624;2023-11-22T04:13:54;7.90;;;3.07;;
24147;SDS011;12309;51.450;-2.624;2023-11-22T04:16:20;5.93;;;2.77;;
24147;SDS011;12309;51.450;-2.624;2023-11-22T04:18:46;7.37;;;2.10;;
24147;SDS011;12309;51.450;-2.624;2023-11-22T04:21:11;7.50;;;2.47;;
24147;SDS011;12309;51.450;-2.624;2023-11-22T04:23:37;4.87;;;2.27;;
24147;SDS011;12309;51.450;-2.624;2023-11-22T04:26:03;5.30;;;2.53;;
24147;SDS011;12309;51.450;-2.624;2023-11-22T04:28:29;5.80;;;2.20;;
24147;SDS011;12309;51.450;-2.624;2023-11-22T04:30:55;8.10;;;2.57;;
24147;SDS011;12309;51.450;-2.624;2023-11-22T04:33:24;5.27;;;2.40;;
24147;SDS011;12309;51.450;-2.624;2023-11-22T04:35:53;4.70;;;2.33;;
24147;SDS011;12309;51.450;-2.624;2023-11-22T04:38:18;6.77;;;2.90;;
24147;SDS011;12309;51.450;-2.624;2023-11-22T04:40:44;7.90;;;3.10;;
24147;SDS011;12309;51.450;-2.624;2023-11-22T04:43:10;6.37;;;2.33;;
24147;SDS011;12309;51.450;-2.624;2023-11-22T04:45:36;5.27;;;2.63;;
24147;SDS011;12309;51.450;-2.624;2023-11-22T04:48:02;7.77;;;2.77;;
24147;SDS011;12309;51.450;-2.624;2023-11-22T04:50:29;5.67;;;2.87;;
24147;SDS011;12309;51.450;-2.624;2023-11-22T04:52:54;4.27;;;2.93;;
24147;SDS011;12309;51.450;-2.624;2023-11-22T04:55:20;9.33;;;3.13;;
24147;SDS011;12309;51.450;-2.624;2023-11-22T04:57:48;5.23;;;3.07;;
24147;SDS011;12309;51.450;-2.624;2023-11-22T05:00:14;5.87;;;3.13;;
24147;SDS011;12309;51.450;-2.624;2023-11-22T05:02:40;8.93;;;3.13;;
24147;SDS011;12309;51.450;-2.624;2023-11-22T05:05:06;9.77;;;2.70;;
24147;SDS011;12309;51.450;-2.624;2023-11-22T05:07:35;6.17;;;3.50;;
24147;SDS011;12309;51.450;-2.624;2023-11-22T05:10:00;6.97;;;3.43;;
24147;SDS011;12309;51.450;-2.624;2023-11-22T05:12:28;6.33;;;3.43;;
24147;SDS011;12309;51.450;-2.624;2023-11-22T05:14:53;9.40;;;3.67;;
24147;SDS011;12309;51.450;-2.624;2023-11-22T05:17:19;8.40;;;3.50;;
24147;SDS011;12309;51.450;-2.624;2023-11-22T05:19:45;6.70;;;3.23;;
24147;SDS011;12309;51.450;-2.624;2023-11-22T05:22:10;5.23;;;2.90;;
24147;SDS011;12309;51.450;-2.624;2023-11-22T05:24:36;5.70;;;3.23;;
24147;SDS011;12309;51.450;-2.624;2023-11-22T05:27:06;5.93;;;3.17;;
24147;SDS011;12309;51.450;-2.624;2023-11-22T05:29:32;7.23;;;3.40;;
24147;SDS011;12309;51.450;-2.624;2023-11-22T05:31:59;5.33;;;3.13;;
24147;SDS011;12309;51.450;-2.624;2023-11-22T05:34:24;8.53;;;3.20;;
24147;SDS011;12309;51.450;-2.624;2023-11-22T05:36:50;6.80;;;3.10;;
24147;SDS011;12309;51.450;-2.624;2023-11-22T05:39:16;4.33;;;3.07;;
24147;SDS011;12309;51.450;-2.624;2023-11-22T05:41:43;6.80;;;3.37;;
24147;SDS011;12309;51.450;-2.624;2023-11-22T05:44:09;6.57;;;2.93;;
24147;SDS011;12309;51.450;-2.624;2023-11-22T05:46:34;7.40;;;3.30;;
24147;SDS011;12309;51.450;-2.624;2023-11-22T05:49:00;4.73;;;3.00;;
24147;SDS011;12309;51.450;-2.624;2023-11-22T05:51:25;9.33;;;3.10;;
24147;SDS011;12309;51.450;-2.624;2023-11-22T05:53:51;10.63;;;3.30;;
24147;SDS011;12309;51.450;-2.624;2023-11-22T05:56:17;6.20;;;3.50;;
24147;SDS011;12309;51.450;-2.624;2023-11-22T05:58:44;7.73;;;3.43;;
24147;SDS011;12309;51.450;-2.624;2023-11-22T06:01:09;5.03;;;3.07;;
24147;SDS011;12309;51.450;-2.624;2023-11-22T06:03:39;7.17;;;3.07;;
24147;SDS011;12309;51.450;-2.624;2023-11-22T06:06:05;7.20;;;3.10;;
24147;SDS011;12309;51.450;-2.624;2023-11-22T06:08:32;5.33;;;2.90;;
24147;SDS011;12309;51.450;-2.624;2023-11-22T06:10:58;6.00;;;3.13;;
24147;SDS011;12309;51.450;-2.624;2023-11-22T06:13:24;4.13;;;2.70;;
24147;SDS011;12309;51.450;-2.624;2023-11-22T06:15:50;5.77;;;2.90;;
24147;SDS011;12309;51.450;-2.624;2023-11-22T06:18:16;7.00;;;3.10;;
24147;SDS011;12309;51.450;-2.624;2023-11-22T06:20:44;5.87;;;2.87;;
24147;SDS011;12309;51.450;-2.624;2023-11-22T06:23:09;6.77;;;3.07;;
24147;SDS011;12309;51.450;-2.624;2023-11-22T06:25:35;4.83;;;2.87;;
24147;SDS011;12309;51.450;-2.624;2023-11-22T06:28:01;7.53;;;2.83;;
24147;SDS011;12309;51.450;-2.624;2023-11-22T06:30:30;8.43;;;2.90;;
24147;SDS011;12309;51.450;-2.624;2023-11-22T06:32:56;7.53;;;2.90;;
24147;SDS011;12309;51.450;-2.624;2023-11-22T06:35:21;6.27;;;2.87;;
24147;SDS011;12309;51.450;-2.624;2023-11-22T06:37:48;9.23;;;3.20;;
24147;SDS011;12309;51.450;-2.624;2023-11-22T06:40:13;7.03;;;2.87;;
24147;SDS011;12309;51.450;-2.624;2023-11-22T06:42:42;6.93;;;3.23;;
24147;SDS011;12309;51.450;-2.624;2023-11-22T06:45:08;6.90;;;3.07;;
24147;SDS011;12309;51.450;-2.624;2023-11-22T06:47:35;7.13;;;3.10;;
24147;SDS011;12309;51.450;-2.624;2023-11-22T06:50:02;4.20;;;2.83;;
24147;SDS011;12309;51.450;-2.624;2023-11-22T06:52:37;12.60;;;3.20;;
24147;SDS011;12309;51.450;-2.624;2023-11-22T06:55:03;6.50;;;3.40;;
24147;SDS011;12309;51.450;-2.624;2023-11-22T06:57:30;10.50;;;3.37;;
24147;SDS011;12309;51.450;-2.624;2023-11-22T06:59:56;6.70;;;3.20;;
24147;SDS011;12309;51.450;-2.624;2023-11-22T07:02:22;4.03;;;2.40;;
24147;SDS011;12309;51.450;-2.624;2023-11-22T07:04:48;5.80;;;2.93;;
24147;SDS011;12309;51.450;-2.624;2023-11-22T07:07:14;10.13;;;3.10;;
24147;SDS011;12309;51.450;-2.624;2023-11-22T07:09:42;5.70;;;3.17;;
24147;SDS011;12309;51.450;-2.624;2023-11-22T07:12:09;8.43;;;3.30;;
24147;SDS011;12309;51.450;-2.624;2023-11-22T07:14:35;7.87;;;4.00;;
24147;SDS011;12309;51.450;-2.624;2023-11-22T07:17:01;8.27;;;4.77;;
24147;SDS011;12309;51.450;-2.624;2023-11-22T07:19:28;5.00;;;3.07;;
24147;SDS011;12309;51.450;-2.624;2023-11-22T07:21:54;10.60;;;4.60;;
24147;SDS011;12309;51.450;-2.624;2023-11-22T07:24:20;7.63;;;4.07;;
24147;SDS011;12309;51.450;-2.624;2023-11-22T07:26:46;7.40;;;3.13;;
24147;SDS011;12309;51.450;-2.624;2023-11-22T07:29:12;5.97;;;3.17;;
24147;SDS011;12309;51.450;-2.624;2023-11-22T07:31:40;3.93;;;2.93;;
24147;SDS011;12309;51.450;-2.624;2023-11-22T07:34:07;7.50;;;2.00;;
24147;SDS011;12309;51.450;-2.624;2023-11-22T07:36:36;7.07;;;3.13;;
24147;SDS011;12309;51.450;-2.624;2023-11-22T07:39:03;7.33;;;2.90;;
24147;SDS011;12309;51.450;-2.624;2023-11-22T07:41:29;10.63;;;2.70;;
24147;SDS011;12309;51.450;-2.624;2023-11-22T07:43:56;4.90;;;2.40;;
24147;SDS011;12309;51.450;-2.624;2023-11-22T07:46:22;9.50;;;2.50;;
24147;SDS011;12309;51.450;-2.624;2023-11-22T07:48:47;6.33;;;3.07;;
24147;SDS011;12309;51.450;-2.624;2023-11-22T07:51:14;7.73;;;2.83;;
24147;SDS011;12309;51.450;-2.624;2023-11-22T07:53:43;8.70;;;2.70;;
24147;SDS011;12309;51.450;-2.624;2023-11-22T07:56:09;9.93;;;2.80;;
24147;SDS011;12309;51.450;-2.624;2023-11-22T07:58:36;5.20;;;2.67;;
24147;SDS011;12309;51.450;-2.624;2023-11-22T08:01:03;5.30;;;2.67;;
24147;SDS011;12309;51.450;-2.624;2023-11-22T08:03:31;9.00;;;3.10;;
24147;SDS011;12309;51.450;-2.624;2023-11-22T08:05:56;7.30;;;2.77;;
24147;SDS011;12309;51.450;-2.624;2023-11-22T08:08:22;6.80;;;3.07;;
24147;SDS011;12309;51.450;-2.624;2023-11-22T08:10:49;8.93;;;3.17;;
24147;SDS011;12309;51.450;-2.624;2023-11-22T08:13:18;6.33;;;2.73;;
24147;SDS011;12309;51.450;-2.624;2023-11-22T08:15:45;10.40;;;2.90;;
24147;SDS011;12309;51.450;-2.624;2023-11-22T08:18:11;6.43;;;2.43;;
24147;SDS011;12309;51.450;-2.624;2023-11-22T08:20:38;8.53;;;2.47;;
24147;SDS011;12309;51.450;-2.624;2023-11-22T08:23:04;9.27;;;2.37;;
24147;SDS011;12309;51.450;-2.624;2023-11-22T08:25:31;6.47;;;2.10;;
24147;SDS011;12309;51.450;-2.624;2023-11-22T08:27:57;5.67;;;2.40;;
24147;SDS011;12309;51.450;-2.624;2023-11-22T08:30:22;4.47;;;2.43;;
24147;SDS011;12309;51.450;-2.624;2023-11-22T08:32:48;7.30;;;2.00;;
24147;SDS011;12309;51.450;-2.624;2023-11-22T08:35:19;6.37;;;1.93;;
24147;SDS011;12309;51.450;-2.624;2023-11-22T08:37:48;5.63;;;1.90;;
24147;SDS011;12309;51.450;-2.624;2023-11-22T08:40:15;17.10;;;2.47;;
24147;SDS011;12309;51.450;-2.624;2023-11-22T08:42:42;12.17;;;2.80;;
24147;SDS011;12309;51.450;-2.624;2023-11-22T08:45:08;9.73;;;2.10;;
24147;SDS011;12309;51.450;-2.624;2023-11-22T08:47:36;9.27;;;2.10;;
24147;SDS011;12309;51.450;-2.624;2023-11-22T08:50:04;11.33;;;2.10;;
24147;SDS011;12309;51.450;-2.624;2023-11-22T08:52:31;10.60;;;2.37;;
24147;SDS011;12309;51.450;-2.624;2023-11-22T08:54:57;5.47;;;1.90;;
24147;SDS011;12309;51.450;-2.624;2023-11-22T08:57:25;7.90;;;1.97;;
24147;SDS011;12309;51.450;-2.624;2023-11-22T08:59:51;7.47;;;1.63;;
24147;SDS011;12309;51.450;-2.624;2023-11-22T09:02:17;4.20;;;1.67;;
24147;SDS011;12309;51.450;-2.624;2023-11-22T09:04:42;14.87;;;2.03;;
24147;SDS011;12309;51.450;-2.624;2023-11-22T09:07:08;11.07;;;1.90;;
24147;SDS011;12309;51.450;-2.624;2023-11-22T09:09:35;7.27;;;1.73;;
24147;SDS011;12309;51.450;-2.624;2023-11-22T09:12:01;11.60;;;2.00;;
24147;SDS011;12309;51.450;-2.624;2023-11-22T09:14:26;7.13;;;1.83;;
24147;SDS011;12309;51.450;-2.624;2023-11-22T09:16:53;4.00;;;1.63;;
24147;SDS011;12309;51.450;-2.624;2023-11-22T09:19:19;11.00;;;1.80;;
24147;SDS011;12309;51.450;-2.624;2023-11-22T09:21:46;12.73;;;1.80;;
24147;SDS011;12309;51.450;-2.624;2023-11-22T09:24:11;6.77;;;1.70;;
24147;SDS011;12309;51.450;-2.624;2023-11-22T09:26:37;8.10;;;1.63;;
24147;SDS011;12309;51.450;-2.624;2023-11-22T09:29:03;5.73;;;1.50;;
24147;SDS011;12309;51.450;-2.624;2023-11-22T09:31:29;6.17;;;1.20;;
24147;SDS011;12309;51.450;-2.624;2023-11-22T09:33:55;6.47;;;1.30;;
24147;SDS011;12309;51.450;-2.624;2023-11-22T09:36:22;5.00;;;1.10;;
24147;SDS011;12309;51.450;-2.624;2023-11-22T09:38:49;5.63;;;1.13;;
24147;SDS011;12309;51.450;-2.624;2023-11-22T09:41:15;10.17;;;1.27;;
24147;SDS011;12309;51.450;-2.624;2023-11-22T09:43:42;6.90;;;1.10;;
24147;SDS011;12309;51.450;-2.624;2023-11-22T09:46:09;7.43;;;1.47;;
24147;SDS011;12309;51.450;-2.624;2023-11-22T09:48:36;7.30;;;1.33;;
24147;SDS011;12309;51.450;-2.624;2023-11-22T09:56:21;4.40;;;1.20;;
24147;SDS011;12309;51.450;-2.624;2023-11-22T09:58:54;6.93;;;0.97;;
24147;SDS011;12309;51.450;-2.624;2023-11-22T10:01:22;5.43;;;1.23;;
24147;SDS011;12309;51.450;-2.624;2023-11-22T10:03:48;6.47;;;1.30;;
24147;SDS011;12309;51.450;-2.624;2023-11-22T10:06:15;6.40;;;1.20;;
24147;SDS011;12309;51.450;-2.624;2023-11-22T10:08:42;6.20;;;1.70;;
24147;SDS011;12309;51.450;-2.624;2023-11-22T10:11:08;7.00;;;1.50;;
24147;SDS011;12309;51.450;-2.624;2023-11-22T10:13:34;7.73;;;1.47;;
24147;SDS011;12309;51.450;-2.624;2023-11-22T10:16:14;5.20;;;1.33;;
24147;SDS011;12309;51.450;-2.624;2023-11-22T10:18:44;6.03;;;1.50;;
24147;SDS011;12309;51.450;-2.624;2023-11-22T10:21:21;9.17;;;1.77;;
24147;SDS011;12309;51.450;-2.624;2023-11-22T10:23:49;8.07;;;1.40;;
24147;SDS011;12309;51.450;-2.624;2023-11-22T10:26:19;7.60;;;1.30;;
24147;SDS011;12309;51.450;-2.624;2023-11-22T10:28:44;9.13;;;1.37;;
24147;SDS011;12309;51.450;-2.624;2023-11-22T10:31:11;9.03;;;1.80;;
24147;SDS011;12309;51.450;-2.624;2023-11-22T10:33:39;5.30;;;1.13;;
24147;SDS011;12309;51.450;-2.624;2023-11-22T10:36:09;13.63;;;1.87;;
24147;SDS011;12309;51.450;-2.624;2023-11-22T10:38:35;10.03;;;1.60;;
24147;SDS011;12309;51.450;-2.624;2023-11-22T10:41:04;8.37;;;1.43;;
24147;SDS011;12309;51.450;-2.624;2023-11-22T10:43:30;6.13;;;1.20;;
24147;SDS011;12309;51.450;-2.624;2023-11-22T10:46:00;3.00;;;1.27;;
24147;SDS011;12309;51.450;-2.624;2023-11-22T10:48:27;8.67;;;1.10;;
24147;SDS011;12309;51.450;-2.624;2023-11-22T10:50:54;5.40;;;1.57;;
24147;SDS011;12309;51.450;-2.624;2023-11-22T10:53:22;3.87;;;1.10;;
24147;SDS011;12309;51.450;-2.624;2023-11-22T10:56:17;9.17;;;1.30;;
24147;SDS011;12309;51.450;-2.624;2023-11-22T10:58:51;5.77;;;1.43;;
24147;SDS011;12309;51.450;-2.624;2023-11-22T11:01:24;8.07;;;1.50;;
24147;SDS011;12309;51.450;-2.624;2023-11-22T11:03:56;7.73;;;1.30;;
24147;SDS011;12309;51.450;-2.624;2023-11-22T11:06:31;6.87;;;1.40;;
24147;SDS011;12309;51.450;-2.624;2023-11-22T11:09:02;7.57;;;1.50;;
24147;SDS011;12309;51.450;-2.624;2023-11-22T11:11:31;7.70;;;1.30;;
24147;SDS011;12309;51.450;-2.624;2023-11-22T11:13:58;8.13;;;1.57;;
24147;SDS011;12309;51.450;-2.624;2023-11-22T11:16:25;4.10;;;1.60;;
24147;SDS011;12309;51.450;-2.624;2023-11-22T11:18:51;7.03;;;1.37;;
24147;SDS011;12309;51.450;-2.624;2023-11-22T11:21:18;6.57;;;1.50;;
24147;SDS011;12309;51.450;-2.624;2023-11-22T11:23:44;8.57;;;1.60;;
24147;SDS011;12309;51.450;-2.624;2023-11-22T11:26:18;3.13;;;1.40;;
24147;SDS011;12309;51.450;-2.624;2023-11-22T11:28:48;9.83;;;1.60;;
24147;SDS011;12309;51.450;-2.624;2023-11-22T11:31:15;9.50;;;2.03;;
24147;SDS011;12309;51.450;-2.624;2023-11-22T11:33:53;7.20;;;1.80;;
24147;SDS011;12309;51.450;-2.624;2023-11-22T11:36:25;5.63;;;2.00;;
24147;SDS011;12309;51.450;-2.624;2023-11-22T11:38:53;7.50;;;2.07;;
24147;SDS011;12309;51.450;-2.624;2023-11-22T11:41:26;8.20;;;1.90;;
24147;SDS011;12309;51.450;-2.624;2023-11-22T11:43:53;7.60;;;1.73;;
24147;SDS011;12309;51.450;-2.624;2023-11-22T11:46:20;10.57;;;1.80;;
24147;SDS011;12309;51.450;-2.624;2023-11-22T11:48:48;7.87;;;1.60;;
24147;SDS011;12309;51.450;-2.624;2023-11-22T11:51:16;10.43;;;2.47;;
24147;SDS011;12309;51.450;-2.624;2023-11-22T11:53:47;7.77;;;1.57;;
24147;SDS011;12309;51.450;-2.624;2023-11-22T11:56:14;5.80;;;1.47;;
24147;SDS011;12309;51.450;-2.624;2023-11-22T11:58:41;7.17;;;1.63;;
24147;SDS011;12309;51.450;-2.624;2023-11-22T12:01:14;10.47;;;1.90;;
24147;SDS011;12309;51.450;-2.624;2023-11-22T12:03:47;2.90;;;1.27;;
24147;SDS011;12309;51.450;-2.624;2023-11-22T12:06:16;9.07;;;1.80;;
24147;SDS011;12309;51.450;-2.624;2023-11-22T12:08:43;7.20;;;1.37;;
24147;SDS011;12309;51.450;-2.624;2023-11-22T12:11:09;7.80;;;1.80;;
24147;SDS011;12309;51.450;-2.624;2023-11-22T12:13:36;6.72;;;1.58;;
24147;SDS011;12309;51.450;-2.624;2023-11-22T12:16:11;10.65;;;1.85;;
24147;SDS011;12309;51.450;-2.624;2023-11-22T12:18:48;5.55;;;1.65;;
24147;SDS011;12309;51.450;-2.624;2023-11-22T12:21:15;5.55;;;2.03;;
24147;SDS011;12309;51.450;-2.624;2023-11-22T12:23:44;11.80;;;2.37;;
24147;SDS011;12309;51.450;-2.624;2023-11-22T12:26:12;13.80;;;2.47;;
24147;SDS011;12309;51.450;-2.624;2023-11-22T12:28:38;16.23;;;2.23;;
24147;SDS011;12309;51.450;-2.624;2023-11-22T12:33:35;10.77;;;2.58;;
24147;SDS011;12309;51.450;-2.624;2023-11-22T12:36:01;9.47;;;2.57;;
24147;SDS011;12309;51.450;-2.624;2023-11-22T12:38:28;7.40;;;2.10;;
24147;SDS011;12309;51.450;-2.624;2023-11-22T12:40:56;10.53;;;1.80;;
24147;SDS011;12309;51.450;-2.624;2023-11-22T12:43:23;10.33;;;1.73;;
24147;SDS011;12309;51.450;-2.624;2023-11-22T12:46:00;5.00;;;1.70;;
24147;SDS011;12309;51.450;-2.624;2023-11-22T12:48:27;4.00;;;2.00;;
24147;SDS011;12309;51.450;-2.624;2023-11-22T12:50:57;4.80;;;2.00;;
24147;SDS011;12309;51.450;-2.624;2023-11-22T12:53:23;5.70;;;2.70;;
24147;SDS011;12309;51.450;-2.624;2023-11-22T12:55:53;4.23;;;1.70;;
24147;SDS011;12309;51.450;-2.624;2023-11-22T12:58:22;5.47;;;2.10;;
24147;SDS011;12309;51.450;-2.624;2023-11-22T13:00:50;4.07;;;1.77;;
24147;SDS011;12309;51.450;-2.624;2023-11-22T13:03:23;5.27;;;2.07;;
24147;SDS011;12309;51.450;-2.624;2023-11-22T13:05:50;9.23;;;2.40;;
24147;SDS011;12309;51.450;-2.624;2023-11-22T13:08:19;8.83;;;2.13;;
24147;SDS011;12309;51.450;-2.624;2023-11-22T13:10:47;6.10;;;2.47;;
24147;SDS011;12309;51.450;-2.624;2023-11-22T13:13:19;6.10;;;2.90;;
24147;SDS011;12309;51.450;-2.624;2023-11-22T13:15:45;5.53;;;2.60;;
24147;SDS011;12309;51.450;-2.624;2023-11-22T13:18:11;11.23;;;3.23;;
24147;SDS011;12309;51.450;-2.624;2023-11-22T13:20:37;6.43;;;2.50;;
24147;SDS011;12309;51.450;-2.624;2023-11-22T13:23:05;8.43;;;2.72;;
24147;SDS011;12309;51.450;-2.624;2023-11-22T13:25:32;7.17;;;2.40;;
24147;SDS011;12309;51.450;-2.624;2023-11-22T13:27:58;6.97;;;2.37;;
24147;SDS011;12309;51.450;-2.624;2023-11-22T13:30:24;7.23;;;1.97;;
24147;SDS011;12309;51.450;-2.624;2023-11-22T13:32:53;6.70;;;1.70;;
24147;SDS011;12309;51.450;-2.624;2023-11-22T13:35:26;3.38;;;1.40;;
24147;SDS011;12309;51.450;-2.624;2023-11-22T13:37:56;4.27;;;1.37;;
24147;SDS011;12309;51.450;-2.624;2023-11-22T13:40:22;3.60;;;1.17;;
24147;SDS011;12309;51.450;-2.624;2023-11-22T13:42:50;5.63;;;1.10;;
24147;SDS011;12309;51.450;-2.624;2023-11-22T13:45:18;4.77;;;1.63;;
24147;SDS011;12309;51.450;-2.624;2023-11-22T13:47:44;6.07;;;1.50;;
24147;SDS011;12309;51.450;-2.624;2023-11-22T13:50:12;5.17;;;1.83;;
24147;SDS011;12309;51.450;-2.624;2023-11-22T13:52:43;6.17;;;1.70;;
24147;SDS011;12309;51.450;-2.624;2023-11-22T13:55:10;5.87;;;1.70;;
24147;SDS011;12309;51.450;-2.624;2023-11-22T13:57:37;3.30;;;1.50;;
24147;SDS011;12309;51.450;-2.624;2023-11-22T14:00:04;5.67;;;1.90;;
24147;SDS011;12309;51.450;-2.624;2023-11-22T14:02:38;7.70;;;1.73;;
24147;SDS011;12309;51.450;-2.624;2023-11-22T14:05:07;8.93;;;2.00;;
24147;SDS011;12309;51.450;-2.624;2023-11-22T14:07:36;4.60;;;1.83;;
24147;SDS011;12309;51.450;-2.624;2023-11-22T14:10:02;5.93;;;2.10;;
24147;SDS011;12309;51.450;-2.624;2023-11-22T14:12:29;5.53;;;2.00;;
24147;SDS011;12309;51.450;-2.624;2023-11-22T14:14:56;7.63;;;2.10;;
24147;SDS011;12309;51.450;-2.624;2023-11-22T14:17:22;3.37;;;1.70;;
24147;SDS011;12309;51.450;-2.624;2023-11-22T14:19:49;4.53;;;1.70;;
24147;SDS011;12309;51.450;-2.624;2023-11-22T14:22:15;9.43;;;1.70;;
24147;SDS011;12309;51.450;-2.624;2023-11-22T14:24:42;12.23;;;1.70;;
24147;SDS011;12309;51.450;-2.624;2023-11-22T14:27:08;6.60;;;1.90;;
24147;SDS011;12309;51.450;-2.624;2023-11-22T14:29:35;5.17;;;1.90;;
24147;SDS011;12309;51.450;-2.624;2023-11-22T14:32:00;11.73;;;2.10;;
24147;SDS011;12309;51.450;-2.624;2023-11-22T14:34:26;4.17;;;1.77;;
24147;SDS011;12309;51.450;-2.624;2023-11-22T14:36:51;9.00;;;2.07;;
24147;SDS011;12309;51.450;-2.624;2023-11-22T14:39:17;3.90;;;1.97;;